createdAt,value
2018-11-10T00:01:21.457Z,135.03
2018-11-10T00:03:51.550Z,127.62
2018-11-10T00:06:21.473Z,138.18
2018-11-10T00:08:51.429Z,121.77
2018-11-10T00:11:21.320Z,138.05
2018-11-10T00:13:51.271Z,132.97
2018-11-10T00:16:21.224Z,136.37
2018-11-10T00:18:51.149Z,141.32
2018-11-10T00:21:21.053Z,130.50
2018-11-10T00:23:51.269Z,144.62
2018-11-10T00:26:21.248Z,128.45
2018-11-10T00:28:51.153Z,139.32
2018-11-10T00:31:21.036Z,136.90
2018-11-10T00:33:50.941Z,132.50
2018-11-10T00:36:20.912Z,153.65
2018-11-10T00:38:51.345Z,140.03
2018-11-10T00:41:21.386Z,136.55
2018-11-10T00:43:51.293Z,137.40
2018-11-10T00:46:21.668Z,148.47
2018-11-10T00:48:51.621Z,148.28
2018-11-10T00:51:21.538Z,152.82
2018-11-10T00:53:51.473Z,151.40
2018-11-10T00:56:21.376Z,152.62
2018-11-10T00:58:51.595Z,150.12
2018-11-10T01:01:21.513Z,143.68
2018-11-10T01:03:51.784Z,149.30
2018-11-10T01:06:21.733Z,150.75
2018-11-10T01:08:51.692Z,154.30
2018-11-10T01:11:21.625Z,169.50
2018-11-10T01:13:51.668Z,144.80
2018-11-10T01:16:21.731Z,154.25
2018-11-10T01:18:51.908Z,177.70
2018-11-10T01:21:21.917Z,157.82
2018-11-10T01:23:51.845Z,182.82
2018-11-10T01:26:21.748Z,174.12
2018-11-10T01:28:51.653Z,149.27
2018-11-10T01:31:21.645Z,159.82
2018-11-10T01:33:51.577Z,175.38
2018-11-10T01:36:21.478Z,166.75
2018-11-10T01:38:51.434Z,147.62
2018-11-10T01:41:28.353Z,152.68
2018-11-10T01:43:58.596Z,150.30
2018-11-10T01:46:28.482Z,147.43
2018-11-10T01:48:58.361Z,136.97
2018-11-10T01:51:28.367Z,130.00
2018-11-10T01:53:58.381Z,130.25
2018-11-10T01:56:28.385Z,137.32
2018-11-10T01:58:58.925Z,135.60
2018-11-10T02:01:28.866Z,120.70
2018-11-10T02:03:58.765Z,139.10
2018-11-10T02:06:28.723Z,124.87
2018-11-10T02:08:58.586Z,156.40
2018-11-10T02:11:28.516Z,148.72
2018-11-10T02:13:58.512Z,158.70
2018-11-10T02:16:28.476Z,160.60
2018-11-10T02:18:58.383Z,179.32
2018-11-10T02:21:28.272Z,163.50
2018-11-10T02:23:58.380Z,152.22
2018-11-10T02:26:28.612Z,188.93
2018-11-10T02:28:58.592Z,172.02
2018-11-10T02:31:28.493Z,163.62
2018-11-10T02:33:58.753Z,170.68
2018-11-10T02:36:28.655Z,156.57
2018-11-10T02:38:58.801Z,154.10
2018-11-10T02:41:28.750Z,147.05
2018-11-10T02:43:58.929Z,157.03
2018-11-10T02:46:28.833Z,153.05
2018-11-10T02:48:59.016Z,147.22
2018-11-10T02:51:29.125Z,135.88
2018-11-10T02:53:59.032Z,131.97
2018-11-10T02:56:28.916Z,136.35
2018-11-10T02:58:58.981Z,132.27
2018-11-10T03:01:28.953Z,127.25
2018-11-10T03:03:58.860Z,118.30
2018-11-10T03:06:28.805Z,117.95
2018-11-10T03:08:58.697Z,109.22
2018-11-10T03:11:28.629Z,107.83
2018-11-10T03:13:58.652Z,106.90
2018-11-10T03:16:28.751Z,108.85
2018-11-10T03:18:58.504Z,127.27
2018-11-10T03:21:28.472Z,125.05
2018-11-10T03:23:58.433Z,128.70
2018-11-10T03:26:28.447Z,134.10
2018-11-10T03:28:58.348Z,123.45
2018-11-10T03:31:28.250Z,121.45
2018-11-10T03:33:58.173Z,123.80
2018-11-10T03:36:28.060Z,149.95
2018-11-10T03:38:58.136Z,127.47
2018-11-10T03:41:28.041Z,123.55
2018-11-10T03:43:58.025Z,111.20
2018-11-10T03:46:27.920Z,116.88
2018-11-10T03:48:57.989Z,109.37
2018-11-10T03:51:27.769Z,121.90
2018-11-10T03:53:57.725Z,111.80
2018-11-10T03:56:27.837Z,113.37
2018-11-10T03:58:57.744Z,107.65
2018-11-10T04:01:27.681Z,109.30
2018-11-10T04:03:57.629Z,107.80
2018-11-10T04:06:28.220Z,94.65
2018-11-10T04:08:58.190Z,109.35
2018-11-10T04:11:28.108Z,98.03
2018-11-10T04:13:58.042Z,94.75
2018-11-10T04:16:27.956Z,104.32
2018-11-10T04:18:58.185Z,101.35
2018-11-10T04:21:28.129Z,96.63
2018-11-10T04:23:58.099Z,93.27
2018-11-10T04:26:27.992Z,99.65
2018-11-10T04:28:57.953Z,96.22
2018-11-10T04:31:28.109Z,104.05
2018-11-10T04:33:58.477Z,105.92
2018-11-10T04:36:28.405Z,102.90
2018-11-10T04:38:58.292Z,100.50
2018-11-10T04:41:28.257Z,107.52
2018-11-10T04:43:58.301Z,113.97
2018-11-10T04:46:28.212Z,95.57
2018-11-10T04:48:58.136Z,109.00
2018-11-10T04:51:28.111Z,106.97
2018-11-10T04:53:58.235Z,97.70
2018-11-10T04:56:28.134Z,92.92
2018-11-10T04:58:58.081Z,101.60
2018-11-10T05:01:28.411Z,101.67
2018-11-10T05:03:58.292Z,87.92
2018-11-10T05:06:28.172Z,91.55
2018-11-10T05:08:58.143Z,95.57
2018-11-10T05:11:28.308Z,91.65
2018-11-10T05:13:58.261Z,101.45
2018-11-10T05:16:28.572Z,82.47
2018-11-10T05:18:58.757Z,90.17
2018-11-10T05:21:28.688Z,88.95
2018-11-10T05:23:58.612Z,81.20
2018-11-10T05:26:28.773Z,84.20
2018-11-10T05:28:58.697Z,87.02
2018-11-10T05:31:28.600Z,94.55
2018-11-10T05:33:58.544Z,87.67
2018-11-10T05:36:28.507Z,86.15
2018-11-10T05:38:58.455Z,93.45
2018-11-10T05:41:28.400Z,84.70
2018-11-10T05:43:58.335Z,82.45
2018-11-10T05:46:28.304Z,90.57
2018-11-10T05:48:58.196Z,82.40
2018-11-10T05:51:28.076Z,92.78
2018-11-10T05:53:58.048Z,88.72
2018-11-10T05:56:28.264Z,86.70
2018-11-10T05:58:58.500Z,87.12
2018-11-10T06:01:28.421Z,97.95
2018-11-10T06:03:58.384Z,83.47
2018-11-10T06:06:28.349Z,88.27
2018-11-10T06:08:58.488Z,85.12
2018-11-10T06:11:28.356Z,81.10
2018-11-10T06:13:58.241Z,85.75
2018-11-10T06:16:28.209Z,99.97
2018-11-10T06:18:58.373Z,97.47
2018-11-10T06:21:28.675Z,89.35
2018-11-10T06:23:58.560Z,80.50
2018-11-10T06:26:29.085Z,85.25
2018-11-10T06:28:59.266Z,89.25
2018-11-10T06:31:29.328Z,91.25
2018-11-10T06:33:59.259Z,84.62
2018-11-10T06:36:29.484Z,85.32
2018-11-10T06:38:59.608Z,86.15
2018-11-10T06:41:29.563Z,90.28
2018-11-10T06:43:59.472Z,85.75
2018-11-10T06:46:29.403Z,79.00
2018-11-10T06:48:59.371Z,87.33
2018-11-10T06:51:29.641Z,91.80
2018-11-10T06:53:59.701Z,92.53
2018-11-10T06:56:29.606Z,97.57
2018-11-10T06:58:59.585Z,94.85
2018-11-10T07:01:30.048Z,83.12
2018-11-10T07:03:59.949Z,95.70
2018-11-10T07:06:30.020Z,88.95
2018-11-10T07:08:59.915Z,87.80
2018-11-10T07:11:29.825Z,98.42
2018-11-10T07:13:59.708Z,87.27
2018-11-10T07:16:29.681Z,80.15
2018-11-10T07:18:59.605Z,80.77
2018-11-10T07:21:29.764Z,85.35
2018-11-10T07:23:59.743Z,86.37
2018-11-10T07:26:29.756Z,84.95
2018-11-10T07:28:59.632Z,77.62
2018-11-10T07:31:29.644Z,83.33
2018-11-10T07:33:59.541Z,79.58
2018-11-10T07:36:29.485Z,75.70
2018-11-10T07:38:59.591Z,84.05
2018-11-10T07:41:30.023Z,76.17
2018-11-10T07:43:59.950Z,87.85
2018-11-10T07:46:29.946Z,93.47
2018-11-10T07:49:00.122Z,96.05
2018-11-10T07:51:30.057Z,93.33
2018-11-10T07:54:00.318Z,84.80
2018-11-10T07:56:30.225Z,87.92
2018-11-10T07:59:00.297Z,82.45
2018-11-10T08:01:30.305Z,78.57
2018-11-10T08:04:00.266Z,92.25
2018-11-10T08:06:30.197Z,82.80
2018-11-10T08:09:00.107Z,80.45
2018-11-10T08:11:30.030Z,76.10
2018-11-10T08:13:59.934Z,78.80
2018-11-10T08:16:29.955Z,75.35
2018-11-10T08:18:59.878Z,79.97
2018-11-10T08:21:29.797Z,84.87
2018-11-10T08:23:59.867Z,90.05
2018-11-10T08:26:29.788Z,87.40
2018-11-10T08:28:59.738Z,83.15
2018-11-10T08:31:29.825Z,79.47
2018-11-10T08:33:59.778Z,73.87
2018-11-10T08:36:29.729Z,77.92
2018-11-10T08:38:59.734Z,75.08
2018-11-10T08:41:29.641Z,81.95
2018-11-10T08:43:59.617Z,81.32
2018-11-10T08:46:29.574Z,77.40
2018-11-10T08:48:59.756Z,80.90
2018-11-10T08:51:29.682Z,87.85
2018-11-10T08:53:59.620Z,73.45
2018-11-10T08:56:29.554Z,79.07
2018-11-10T08:58:59.787Z,82.45
2018-11-10T09:01:30.664Z,75.97
2018-11-10T09:04:00.616Z,77.25
2018-11-10T09:06:30.667Z,73.27
2018-11-10T09:09:00.532Z,78.00
2018-11-10T09:11:30.541Z,83.17
2018-11-10T09:14:00.436Z,74.80
2018-11-10T09:16:30.364Z,80.90
2018-11-10T09:19:00.316Z,78.33
2018-11-10T09:21:30.322Z,67.20
2018-11-10T09:24:00.169Z,75.17
2018-11-10T09:26:30.041Z,76.33
2018-11-10T09:28:59.981Z,74.13
2018-11-10T09:31:30.092Z,71.47
2018-11-10T09:34:00.262Z,76.23
2018-11-10T09:36:30.242Z,71.87
2018-11-10T09:39:00.188Z,74.63
2018-11-10T09:41:30.348Z,70.23
2018-11-10T09:44:00.545Z,76.47
2018-11-10T09:46:30.540Z,77.27
2018-11-10T09:49:00.564Z,72.03
2018-11-10T09:51:30.941Z,67.73
2018-11-10T09:54:00.840Z,83.27
2018-11-10T09:56:30.729Z,67.43
2018-11-10T09:59:00.692Z,73.77
2018-11-10T10:01:30.816Z,70.70
2018-11-10T10:04:00.527Z,72.43
2018-11-10T10:06:30.482Z,67.77
2018-11-10T10:09:00.700Z,62.20
2018-11-10T10:11:30.513Z,68.67
2018-11-10T10:14:00.717Z,71.30
2018-11-10T10:16:31.241Z,68.67
2018-11-10T10:19:01.128Z,64.73
2018-11-10T10:21:31.154Z,68.23
2018-11-10T10:24:01.037Z,68.70
2018-11-10T10:26:31.032Z,65.67
2018-11-10T10:29:01.009Z,66.93
2018-11-10T10:31:30.912Z,61.23
2018-11-10T10:34:00.900Z,67.60
2018-11-10T10:36:30.779Z,63.40
2018-11-10T10:39:00.717Z,62.33
2018-11-10T10:41:30.717Z,62.40
2018-11-10T10:44:00.609Z,67.03
2018-11-10T10:46:30.930Z,63.63
2018-11-10T10:49:01.326Z,80.97
2018-11-10T10:51:31.158Z,57.60
2018-11-10T10:54:01.128Z,54.47
2018-11-10T10:56:31.152Z,60.03
2018-11-10T10:59:01.094Z,66.63
2018-11-10T11:01:36.435Z,71.70
2018-11-10T11:04:11.898Z,65.37
2018-11-10T11:06:41.888Z,66.17
2018-11-10T11:09:11.936Z,62.77
2018-11-10T11:11:41.879Z,75.90
2018-11-10T11:14:11.888Z,65.03
2018-11-10T11:16:41.812Z,126.03
2018-11-10T11:19:11.767Z,86.53
2018-11-10T11:21:41.727Z,67.70
2018-11-10T11:24:11.650Z,59.83
2018-11-10T11:26:41.563Z,67.53
2018-11-10T11:29:11.612Z,58.03
2018-11-10T11:31:41.475Z,61.03
2018-11-10T11:34:11.392Z,55.67
2018-11-10T11:36:41.445Z,49.43
2018-11-10T11:39:12.157Z,50.33
2018-11-10T11:41:42.221Z,51.43
2018-11-10T11:44:12.176Z,58.10
2018-11-10T11:46:42.175Z,51.27
2018-11-10T11:49:12.348Z,55.47
2018-11-10T11:51:42.281Z,51.00
2018-11-10T11:54:12.193Z,55.87
2018-11-10T11:56:42.089Z,53.77
2018-11-10T11:59:12.081Z,55.37
2018-11-10T12:01:41.955Z,52.10
2018-11-10T12:04:11.937Z,49.83
2018-11-10T12:06:41.871Z,50.00
2018-11-10T12:09:12.184Z,52.00
2018-11-10T12:11:42.320Z,51.90
2018-11-10T12:14:12.232Z,48.50
2018-11-10T12:16:42.190Z,51.83
2018-11-10T12:19:12.065Z,53.30
2018-11-10T12:21:41.961Z,48.57
2018-11-10T12:24:12.301Z,52.57
2018-11-10T12:26:42.247Z,52.83
2018-11-10T12:29:12.205Z,48.00
2018-11-10T12:31:42.132Z,55.27
2018-11-10T12:34:12.064Z,50.43
2018-11-10T12:36:41.985Z,44.83
2018-11-10T12:39:18.217Z,50.77
2018-11-10T12:41:48.434Z,56.53
2018-11-10T12:44:18.376Z,50.27
2018-11-10T12:46:48.277Z,50.53
2018-11-10T12:49:18.289Z,43.57
2018-11-10T12:51:48.085Z,49.03
2018-11-10T12:54:18.017Z,47.87
2018-11-10T12:56:47.904Z,41.50
2018-11-10T12:59:17.936Z,45.47
2018-11-10T13:01:49.049Z,47.07
2018-11-10T13:04:19.129Z,51.80
2018-11-10T13:06:49.000Z,49.93
2018-11-10T13:09:18.917Z,43.90
2018-11-10T13:11:49.032Z,42.43
2018-11-10T13:14:18.819Z,44.33
2018-11-10T13:16:48.685Z,48.87
2018-11-10T13:19:18.729Z,47.80
2018-11-10T13:21:48.628Z,43.70
2018-11-10T13:24:18.650Z,50.77
2018-11-10T13:26:48.482Z,44.83
2018-11-10T13:29:18.460Z,41.03
2018-11-10T13:31:48.368Z,43.93
2018-11-10T13:34:18.247Z,45.40
2018-11-10T13:36:48.200Z,47.53
2018-11-10T13:39:18.136Z,47.90
2018-11-10T13:41:48.078Z,41.77
2018-11-10T13:44:18.058Z,46.07
2018-11-10T13:46:47.988Z,44.67
2018-11-10T13:49:17.869Z,47.60
2018-11-10T13:51:48.232Z,49.90
2018-11-10T13:54:17.801Z,40.90
2018-11-10T13:56:47.737Z,39.90
2018-11-10T13:59:17.735Z,41.07
2018-11-10T14:01:47.615Z,49.47
2018-11-10T14:04:17.570Z,52.33
2018-11-10T14:06:47.560Z,49.30
2018-11-10T14:09:17.525Z,50.93
2018-11-10T14:14:46.548Z,47.60
2018-11-10T14:17:16.553Z,47.67
2018-11-10T14:19:46.466Z,46.03
2018-11-10T14:22:16.353Z,43.80
2018-11-10T14:24:46.298Z,45.80
2018-11-10T14:27:16.221Z,42.57
2018-11-10T14:29:46.163Z,44.07
2018-11-10T14:32:16.069Z,41.80
2018-11-10T14:34:45.957Z,41.33
2018-11-10T14:37:15.856Z,50.07
2018-11-10T14:39:45.752Z,46.90
2018-11-10T14:42:15.636Z,51.08
2018-11-10T14:44:45.568Z,47.07
2018-11-10T14:47:15.519Z,42.23
2018-11-10T14:49:45.400Z,47.30
2018-11-10T14:52:15.298Z,46.43
2018-11-10T14:54:45.229Z,46.60
2018-11-10T14:57:15.384Z,48.20
2018-11-10T14:59:45.328Z,48.50
2018-11-10T15:02:15.236Z,44.23
2018-11-10T15:04:45.152Z,46.10
2018-11-10T15:07:15.088Z,50.33
2018-11-10T15:09:44.965Z,54.40
2018-11-10T15:12:14.940Z,56.70
2018-11-10T15:14:44.728Z,49.50
2018-11-10T15:17:14.646Z,55.50
2018-11-10T15:19:44.569Z,57.17
2018-11-10T15:22:14.439Z,58.60
2018-11-10T15:24:44.349Z,61.97
2018-11-10T15:27:14.316Z,56.80
2018-11-10T15:29:44.192Z,56.33
2018-11-10T15:32:14.100Z,54.93
2018-11-10T15:34:43.997Z,57.10
2018-11-10T15:37:13.900Z,58.85
2018-11-10T15:39:43.790Z,64.73
2018-11-10T15:42:13.677Z,62.27
2018-11-10T15:44:43.577Z,79.23
2018-11-10T15:47:13.719Z,56.57
2018-11-10T15:49:43.745Z,61.50
2018-11-10T15:52:13.637Z,59.03
2018-11-10T15:54:43.524Z,65.67
2018-11-10T15:57:13.900Z,60.60
2018-11-10T15:59:44.004Z,63.17
2018-11-10T16:02:13.925Z,124.40
2018-11-10T16:04:43.820Z,87.20
2018-11-10T16:07:13.738Z,65.80
2018-11-10T16:09:43.640Z,64.20
2018-11-10T16:12:13.504Z,69.97
2018-11-10T16:14:43.394Z,61.37
2018-11-10T16:17:13.554Z,64.93
2018-11-10T16:19:43.438Z,67.70
2018-11-10T16:22:13.309Z,62.03
2018-11-10T16:24:43.172Z,67.57
2018-11-10T16:27:13.049Z,70.47
2018-11-10T16:29:42.957Z,65.80
2018-11-10T16:32:12.845Z,65.20
2018-11-10T16:34:42.721Z,69.07
2018-11-10T16:37:12.671Z,65.40
2018-11-10T16:39:42.512Z,73.13
2018-11-10T16:42:12.391Z,87.60
2018-11-10T16:44:42.379Z,92.55
2018-11-10T16:47:12.262Z,115.43
2018-11-10T16:49:42.162Z,100.42
2018-11-10T16:52:12.051Z,109.75
2018-11-10T16:54:42.088Z,105.75
2018-11-10T16:57:11.973Z,84.20
2018-11-10T16:59:41.957Z,119.77
2018-11-10T17:02:11.952Z,96.02
2018-11-10T17:04:41.986Z,106.43
2018-11-10T17:07:11.994Z,102.50
2018-11-10T17:09:41.872Z,123.80
2018-11-10T17:12:11.843Z,112.08
2018-11-10T17:14:41.777Z,104.40
2018-11-10T17:17:11.801Z,116.62
2018-11-10T17:19:41.744Z,138.92
2018-11-10T17:22:12.062Z,105.20
2018-11-10T17:24:41.924Z,78.83
2018-11-10T17:27:12.021Z,82.33
2018-11-10T17:29:42.580Z,76.80
2018-11-10T17:32:12.477Z,74.65
2018-11-10T17:34:42.398Z,78.10
2018-11-10T17:37:12.264Z,79.30
2018-11-10T17:39:42.285Z,80.30
2018-11-10T17:42:12.096Z,77.37
2018-11-10T17:44:41.981Z,78.80
2018-11-10T17:47:11.872Z,83.82
2018-11-10T17:49:41.909Z,89.13
2018-11-10T17:52:11.947Z,96.97
2018-11-10T17:54:42.404Z,132.45
2018-11-10T17:57:12.277Z,102.27
2018-11-10T17:59:42.168Z,93.10
2018-11-10T18:02:12.123Z,81.65
2018-11-10T18:04:42.114Z,95.55
2018-11-10T18:07:12.008Z,104.70
2018-11-10T18:09:42.357Z,90.72
2018-11-10T18:12:12.261Z,100.62
2018-11-10T18:14:42.596Z,103.10
2018-11-10T18:17:12.580Z,100.07
2018-11-10T18:19:42.468Z,122.98
2018-11-10T18:22:12.366Z,106.25
2018-11-10T18:24:42.338Z,110.20
2018-11-10T18:27:12.477Z,97.27
2018-11-10T18:29:42.397Z,88.42
2018-11-10T18:32:12.918Z,92.08
2018-11-10T18:34:43.307Z,111.85
2018-11-10T18:37:13.868Z,107.17
2018-11-10T18:39:44.398Z,100.90
2018-11-10T18:42:14.871Z,125.75
2018-11-10T18:44:44.837Z,112.30
2018-11-10T18:47:14.927Z,114.10
2018-11-10T18:49:45.208Z,102.47
2018-11-10T18:52:15.180Z,106.75
2018-11-10T18:54:45.102Z,108.25
2018-11-10T18:57:15.153Z,94.97
2018-11-10T18:59:44.959Z,95.97
2018-11-10T19:02:14.944Z,92.35
2018-11-10T19:04:44.877Z,106.92
2018-11-10T19:07:14.789Z,94.95
2018-11-10T19:09:44.701Z,86.15
2018-11-10T19:12:14.601Z,93.33
2018-11-10T19:14:44.496Z,91.42
2018-11-10T19:17:14.450Z,93.70
2018-11-10T19:19:44.367Z,90.45
2018-11-10T19:22:14.265Z,86.37
2018-11-10T19:24:44.187Z,83.62
2018-11-10T19:27:14.124Z,99.87
2018-11-10T19:29:44.040Z,97.10
2018-11-10T19:32:14.011Z,92.75
2018-11-10T19:34:43.849Z,100.70
2018-11-10T19:37:13.743Z,94.55
2018-11-10T19:39:43.628Z,96.08
2018-11-10T19:42:13.521Z,100.20
2018-11-10T19:44:43.419Z,95.83
2018-11-10T19:47:13.309Z,103.25
2018-11-10T19:49:43.205Z,94.30
2018-11-10T19:52:13.345Z,86.53
2018-11-10T19:54:43.100Z,103.92
2018-11-10T19:57:12.995Z,116.77
2018-11-10T19:59:42.972Z,103.38
2018-11-10T20:02:12.880Z,106.25
2018-11-10T20:04:42.861Z,100.12
2018-11-10T20:07:12.773Z,103.47
2018-11-10T20:09:42.684Z,93.58
2018-11-10T20:12:12.583Z,106.78
2018-11-10T20:14:42.494Z,93.70
2018-11-10T20:17:12.435Z,99.72
2018-11-10T20:19:42.365Z,94.20
2018-11-10T20:22:12.213Z,105.47
2018-11-10T20:24:42.124Z,95.85
2018-11-10T20:27:12.149Z,93.50
2018-11-10T20:29:42.117Z,117.95
2018-11-10T20:32:12.024Z,124.70
2018-11-10T20:34:42.480Z,128.95
2018-11-10T20:37:12.480Z,114.28
2018-11-10T20:39:42.410Z,123.10
2018-11-10T20:42:12.282Z,118.00
2018-11-10T20:44:42.360Z,117.17
2018-11-10T20:47:12.388Z,109.48
2018-11-10T20:49:42.304Z,99.07
2018-11-10T20:52:12.178Z,92.00
2018-11-10T20:54:42.087Z,104.65
2018-11-10T20:57:12.005Z,99.50
2018-11-10T20:59:41.912Z,115.47
2018-11-10T21:02:11.811Z,109.50
2018-11-10T21:04:41.713Z,101.20
2018-11-10T21:07:11.857Z,104.75
2018-11-10T21:09:41.716Z,93.85
2018-11-10T21:12:11.630Z,92.70
2018-11-10T21:14:41.516Z,92.80
2018-11-10T21:17:11.462Z,100.45
2018-11-10T21:19:41.377Z,89.52
2018-11-10T21:22:12.971Z,107.12
2018-11-10T21:24:43.373Z,90.03
2018-11-10T21:27:13.592Z,85.30
2018-11-10T21:29:43.627Z,101.07
2018-11-10T21:32:13.841Z,96.40
2018-11-10T21:34:43.715Z,96.97
2018-11-10T21:37:13.594Z,101.20
2018-11-10T21:39:43.464Z,87.70
2018-11-10T21:42:13.350Z,92.75
2018-11-10T21:44:43.286Z,103.95
2018-11-10T21:47:13.185Z,102.53
2018-11-10T21:49:43.155Z,106.17
2018-11-10T21:52:12.991Z,121.47
2018-11-10T21:54:42.947Z,116.37
2018-11-10T21:57:12.894Z,116.95
2018-11-10T21:59:42.813Z,113.12
2018-11-10T22:02:12.705Z,101.60
2018-11-10T22:04:42.641Z,106.80
2018-11-10T22:07:12.617Z,96.92
2018-11-10T22:09:42.539Z,97.42
2018-11-10T22:12:12.458Z,91.57
2018-11-10T22:14:42.404Z,99.10
2018-11-10T22:17:12.464Z,91.92
2018-11-10T22:19:42.352Z,95.90
2018-11-10T22:22:13.733Z,92.17
2018-11-10T22:24:43.693Z,89.70
2018-11-10T22:27:13.620Z,85.92
2018-11-10T22:29:43.621Z,80.62
2018-11-10T22:32:13.605Z,95.67
2018-11-10T22:34:43.660Z,92.05
2018-11-10T22:37:13.594Z,89.10
2018-11-10T22:39:43.521Z,92.82
2018-11-10T22:42:13.528Z,96.17
2018-11-10T22:44:43.513Z,119.10
2018-11-10T22:47:13.389Z,129.42
2018-11-10T22:49:43.313Z,154.53
2018-11-10T22:52:13.240Z,167.20
2018-11-10T22:54:43.208Z,126.82
2018-11-10T22:57:13.108Z,99.70
2018-11-10T22:59:43.269Z,108.87
2018-11-10T23:02:13.206Z,110.35
2018-11-10T23:04:43.092Z,104.85
2018-11-10T23:07:13.016Z,105.30
2018-11-10T23:09:42.893Z,97.75
2018-11-10T23:12:12.843Z,95.92
2018-11-10T23:14:42.737Z,96.97
2018-11-10T23:17:12.734Z,84.60
2018-11-10T23:19:42.668Z,91.90
2018-11-10T23:22:12.552Z,80.72
2018-11-10T23:24:42.619Z,90.47
2018-11-10T23:27:12.531Z,99.80
2018-11-10T23:29:42.503Z,87.35
2018-11-10T23:32:12.445Z,92.67
2018-11-10T23:34:42.476Z,82.15
2018-11-10T23:37:12.349Z,82.67
2018-11-10T23:39:42.224Z,99.20
2018-11-10T23:42:12.175Z,78.95
2018-11-10T23:44:42.048Z,89.50
2018-11-10T23:47:12.045Z,87.65
2018-11-10T23:49:41.937Z,95.10
2018-11-10T23:52:11.824Z,82.30
2018-11-10T23:54:41.701Z,89.62
2018-11-10T23:57:11.569Z,92.50
2018-11-10T23:59:41.741Z,84.70
